sensor_id;sensor_type;location;lat;lon;timestamp;pressure;altitude;pressure_sealevel;temperature;humidity
20119;BME280;10220;42.716;23.306;2023-11-19T00:01:26;95231.31;;;3.95;100.00
20119;BME280;10220;42.716;23.306;2023-11-19T00:03:51;95240.28;;;3.99;100.00
20119;BME280;10220;42.716;23.306;2023-11-19T00:06:16;95254.22;;;4.12;100.00
20119;BME280;10220;42.716;23.306;2023-11-19T00:08:42;95228.28;;;4.07;100.00
20119;BME280;10220;42.716;23.306;2023-11-19T00:11:09;95245.09;;;4.09;100.00
20119;BME280;10220;42.716;23.306;2023-11-19T00:13:34;95233.09;;;3.94;100.00
20119;BME280;10220;42.716;23.306;2023-11-19T00:16:00;95226.84;;;3.89;100.00
20119;BME280;10220;42.716;23.306;2023-11-19T00:18:25;95244.00;;;3.96;100.00
20119;BME280;10220;42.716;23.306;2023-11-19T00:20:51;95245.41;;;3.99;100.00
20119;BME280;10220;42.716;23.306;2023-11-19T00:23:16;95241.72;;;4.01;100.00
20119;BME280;10220;42.716;23.306;2023-11-19T00:25:42;95227.97;;;3.78;100.00
20119;BME280;10220;42.716;23.306;2023-11-19T00:28:07;95247.81;;;4.00;100.00
20119;BME280;10220;42.716;23.306;2023-11-19T00:30:33;95242.38;;;3.95;100.00
20119;BME280;10220;42.716;23.306;2023-11-19T00:32:58;95226.19;;;3.87;100.00
20119;BME280;10220;42.716;23.306;2023-11-19T00:35:24;95235.97;;;3.91;100.00
20119;BME280;10220;42.716;23.306;2023-11-19T00:37:49;95225.72;;;3.91;100.00
20119;BME280;10220;42.716;23.306;2023-11-19T00:40:15;95247.66;;;4.02;100.00
20119;BME280;10220;42.716;23.306;2023-11-19T00:42:46;95232.91;;;3.96;100.00
20119;BME280;10220;42.716;23.306;2023-11-19T00:45:12;95249.09;;;3.96;100.00
20119;BME280;10220;42.716;23.306;2023-11-19T00:47:38;95247.50;;;3.87;100.00
20119;BME280;10220;42.716;23.306;2023-11-19T00:50:04;95249.09;;;3.96;100.00
20119;BME280;10220;42.716;23.306;2023-11-19T00:52:29;95255.19;;;3.95;100.00
20119;BME280;10220;42.716;23.306;2023-11-19T00:54:55;95261.41;;;4.01;100.00
20119;BME280;10220;42.716;23.306;2023-11-19T00:57:20;95249.25;;;3.95;100.00
20119;BME280;10220;42.716;23.306;2023-11-19T00:59:45;95221.25;;;3.77;100.00
20119;BME280;10220;42.716;23.306;2023-11-19T01:02:12;95250.69;;;3.89;100.00
20119;BME280;10220;42.716;23.306;2023-11-19T01:04:39;95253.91;;;3.99;100.00
20119;BME280;10220;42.716;23.306;2023-11-19T01:07:05;95259.03;;;3.99;100.00
20119;BME280;10220;42.716;23.306;2023-11-19T01:09:37;95234.88;;;3.86;100.00
20119;BME280;10220;42.716;23.306;2023-11-19T01:12:06;95244.44;;;3.92;100.00
20119;BME280;10220;42.716;23.306;2023-11-19T01:14:32;95250.38;;;4.00;100.00
20119;BME280;10220;42.716;23.306;2023-11-19T01:16:58;95259.97;;;3.98;100.00
20119;BME280;10220;42.716;23.306;2023-11-19T01:19:23;95229.56;;;3.87;100.00
20119;BME280;10220;42.716;23.306;2023-11-19T01:21:52;95251.03;;;3.94;100.00
20119;BME280;10220;42.716;23.306;2023-11-19T01:24:18;95225.75;;;3.75;100.00
20119;BME280;10220;42.716;23.306;2023-11-19T01:26:46;95213.75;;;3.68;100.00
20119;BME280;10220;42.716;23.306;2023-11-19T01:29:15;95198.22;;;3.53;100.00
20119;BME280;10220;42.716;23.306;2023-11-19T01:31:46;95243.84;;;3.82;100.00
20119;BME280;10220;42.716;23.306;2023-11-19T01:34:16;95236.63;;;3.69;100.00
20119;BME280;10220;42.716;23.306;2023-11-19T01:36:42;95217.88;;;3.45;100.00
20119;BME280;10220;42.716;23.306;2023-11-19T01:39:07;95212.91;;;3.51;100.00
20119;BME280;10220;42.716;23.306;2023-11-19T01:41:36;95284.66;;;3.83;100.00
20119;BME280;10220;42.716;23.306;2023-11-19T01:44:02;95215.63;;;3.42;100.00
20119;BME280;10220;42.716;23.306;2023-11-19T01:46:31;95235.78;;;3.53;100.00
20119;BME280;10220;42.716;23.306;2023-11-19T01:48:59;95287.81;;;3.69;100.00
20119;BME280;10220;42.716;23.306;2023-11-19T01:51:25;95295.69;;;3.68;100.00
20119;BME280;10220;42.716;23.306;2023-11-19T01:53:50;95293.75;;;3.70;100.00
20119;BME280;10220;42.716;23.306;2023-11-19T01:56:16;95294.06;;;3.67;100.00
20119;BME280;10220;42.716;23.306;2023-11-19T01:58:44;95305.44;;;3.80;100.00
20119;BME280;10220;42.716;23.306;2023-11-19T02:01:11;95296.00;;;3.89;100.00
20119;BME280;10220;42.716;23.306;2023-11-19T02:03:37;95284.78;;;3.74;100.00
20119;BME280;10220;42.716;23.306;2023-11-19T02:06:03;95282.53;;;3.79;100.00
20119;BME280;10220;42.716;23.306;2023-11-19T02:08:29;95275.53;;;3.73;100.00
20119;BME280;10220;42.716;23.306;2023-11-19T02:10:55;95282.25;;;3.82;100.00
20119;BME280;10220;42.716;23.306;2023-11-19T02:13:27;95281.09;;;3.84;100.00
20119;BME280;10220;42.716;23.306;2023-11-19T02:15:53;95274.69;;;3.88;100.00
20119;BME280;10220;42.716;23.306;2023-11-19T02:18:24;95273.25;;;3.70;100.00
20119;BME280;10220;42.716;23.306;2023-11-19T02:20:56;95235.78;;;3.37;100.00
20119;BME280;10220;42.716;23.306;2023-11-19T02:23:28;95261.44;;;3.77;100.00
20119;BME280;10220;42.716;23.306;2023-11-19T02:26:29;95272.63;;;3.84;100.00
20119;BME280;10220;42.716;23.306;2023-11-19T02:28:58;95273.75;;;3.73;100.00
20119;BME280;10220;42.716;23.306;2023-11-19T02:31:24;95278.22;;;3.63;100.00
20119;BME280;10220;42.716;23.306;2023-11-19T02:33:49;95255.47;;;3.52;100.00
20119;BME280;10220;42.716;23.306;2023-11-19T02:36:15;95254.69;;;3.52;100.00
20119;BME280;10220;42.716;23.306;2023-11-19T02:38:42;95258.03;;;3.45;100.00
20119;BME280;10220;42.716;23.306;2023-11-19T02:41:07;95250.53;;;3.59;100.00
20119;BME280;10220;42.716;23.306;2023-11-19T02:43:34;95269.72;;;3.55;100.00
20119;BME280;10220;42.716;23.306;2023-11-19T02:46:03;95279.31;;;3.45;100.00
20119;BME280;10220;42.716;23.306;2023-11-19T02:48:32;95277.69;;;3.36;100.00
20119;BME280;10220;42.716;23.306;2023-11-19T02:50:58;95269.38;;;3.34;100.00
20119;BME280;10220;42.716;23.306;2023-11-19T02:53:24;95293.06;;;3.44;100.00
20119;BME280;10220;42.716;23.306;2023-11-19T02:55:52;95272.53;;;3.28;100.00
20119;BME280;10220;42.716;23.306;2023-11-19T02:58:18;95227.88;;;2.99;100.00
20119;BME280;10220;42.716;23.306;2023-11-19T03:00:45;95269.06;;;3.37;100.00
20119;BME280;10220;42.716;23.306;2023-11-19T03:03:19;95271.16;;;3.42;100.00
20119;BME280;10220;42.716;23.306;2023-11-19T03:05:48;95270.00;;;3.44;100.00
20119;BME280;10220;42.716;23.306;2023-11-19T03:08:17;95274.69;;;3.56;100.00
20119;BME280;10220;42.716;23.306;2023-11-19T03:10:42;95282.34;;;3.48;100.00
20119;BME280;10220;42.716;23.306;2023-11-19T03:13:13;95286.38;;;3.51;100.00
20119;BME280;10220;42.716;23.306;2023-11-19T03:15:42;95291.81;;;3.48;100.00
20119;BME280;10220;42.716;23.306;2023-11-19T03:18:08;95292.13;;;3.53;100.00
20119;BME280;10220;42.716;23.306;2023-11-19T03:20:33;95295.16;;;3.48;100.00
20119;BME280;10220;42.716;23.306;2023-11-19T03:22:59;95301.56;;;3.52;100.00
20119;BME280;10220;42.716;23.306;2023-11-19T03:25:27;95301.72;;;3.51;100.00
20119;BME280;10220;42.716;23.306;2023-11-19T03:27:58;95299.81;;;3.61;100.00
20119;BME280;10220;42.716;23.306;2023-11-19T03:30:24;95299.66;;;3.62;100.00
20119;BME280;10220;42.716;23.306;2023-11-19T03:32:50;95288.56;;;3.38;100.00
20119;BME280;10220;42.716;23.306;2023-11-19T03:35:15;95291.16;;;3.46;100.00
20119;BME280;10220;42.716;23.306;2023-11-19T03:37:40;95261.81;;;3.17;100.00
20119;BME280;10220;42.716;23.306;2023-11-19T03:40:06;95290.34;;;3.38;100.00
20119;BME280;10220;42.716;23.306;2023-11-19T03:42:32;95298.16;;;3.44;100.00
20119;BME280;10220;42.716;23.306;2023-11-19T03:44:58;95308.09;;;3.39;100.00
20119;BME280;10220;42.716;23.306;2023-11-19T03:47:23;95311.63;;;3.38;100.00
20119;BME280;10220;42.716;23.306;2023-11-19T03:49:49;95327.78;;;3.47;100.00
20119;BME280;10220;42.716;23.306;2023-11-19T03:52:16;95310.31;;;3.26;100.00
20119;BME280;10220;42.716;23.306;2023-11-19T03:54:41;95287.09;;;3.20;100.00
20119;BME280;10220;42.716;23.306;2023-11-19T03:57:06;95331.94;;;3.40;100.00
20119;BME280;10220;42.716;23.306;2023-11-19T03:59:32;95307.25;;;3.31;100.00
20119;BME280;10220;42.716;23.306;2023-11-19T04:01:58;95343.19;;;3.62;100.00
20119;BME280;10220;42.716;23.306;2023-11-19T04:04:26;95332.44;;;3.51;100.00
20119;BME280;10220;42.716;23.306;2023-11-19T04:06:52;95325.38;;;3.53;100.00
20119;BME280;10220;42.716;23.306;2023-11-19T04:09:18;95345.88;;;3.61;100.00
20119;BME280;10220;42.716;23.306;2023-11-19T04:11:43;95333.41;;;3.58;100.00
20119;BME280;10220;42.716;23.306;2023-11-19T04:14:09;95354.22;;;3.63;100.00
20119;BME280;10220;42.716;23.306;2023-11-19T04:16:35;95350.53;;;3.49;100.00
20119;BME280;10220;42.716;23.306;2023-11-19T04:19:00;95344.91;;;3.46;100.00
20119;BME280;10220;42.716;23.306;2023-11-19T04:21:26;95343.31;;;3.61;100.00
20119;BME280;10220;42.716;23.306;2023-11-19T04:23:52;95354.75;;;3.74;100.00
20119;BME280;10220;42.716;23.306;2023-11-19T04:26:17;95340.63;;;3.54;100.00
20119;BME280;10220;42.716;23.306;2023-11-19T04:28:43;95350.41;;;3.67;100.00
20119;BME280;10220;42.716;23.306;2023-11-19T04:31:08;95345.41;;;3.57;100.00
20119;BME280;10220;42.716;23.306;2023-11-19T04:33:34;95338.34;;;3.44;100.00
20119;BME280;10220;42.716;23.306;2023-11-19T04:36:00;95372.47;;;3.60;100.00
20119;BME280;10220;42.716;23.306;2023-11-19T04:38:25;95341.22;;;3.41;100.00
20119;BME280;10220;42.716;23.306;2023-11-19T04:40:52;95356.59;;;3.48;100.00
20119;BME280;10220;42.716;23.306;2023-11-19T04:43:17;95369.75;;;3.61;100.00
20119;BME280;10220;42.716;23.306;2023-11-19T04:45:43;95339.63;;;3.55;100.00
20119;BME280;10220;42.716;23.306;2023-11-19T04:48:09;95346.50;;;3.47;100.00
20119;BME280;10220;42.716;23.306;2023-11-19T04:50:34;95356.72;;;3.39;100.00
20119;BME280;10220;42.716;23.306;2023-11-19T04:52:59;95336.06;;;3.25;100.00
20119;BME280;10220;42.716;23.306;2023-11-19T04:55:25;95330.31;;;3.39;100.00
20119;BME280;10220;42.716;23.306;2023-11-19T04:57:50;95363.59;;;3.39;100.00
20119;BME280;10220;42.716;23.306;2023-11-19T05:00:19;95373.75;;;3.56;100.00
20119;BME280;10220;42.716;23.306;2023-11-19T05:02:44;95355.31;;;3.45;100.00
20119;BME280;10220;42.716;23.306;2023-11-19T05:05:10;95389.72;;;3.50;100.00
20119;BME280;10220;42.716;23.306;2023-11-19T05:07:35;95400.44;;;3.53;100.00
20119;BME280;10220;42.716;23.306;2023-11-19T05:10:01;95385.03;;;3.38;100.00
20119;BME280;10220;42.716;23.306;2023-11-19T05:12:26;95401.72;;;3.49;100.00
20119;BME280;10220;42.716;23.306;2023-11-19T05:14:52;95391.75;;;3.47;100.00
20119;BME280;10220;42.716;23.306;2023-11-19T05:17:17;95394.47;;;3.37;100.00
20119;BME280;10220;42.716;23.306;2023-11-19T05:19:43;95371.91;;;3.33;100.00
20119;BME280;10220;42.716;23.306;2023-11-19T05:22:09;95377.81;;;3.33;100.00
20119;BME280;10220;42.716;23.306;2023-11-19T05:24:34;95384.88;;;3.39;100.00
20119;BME280;10220;42.716;23.306;2023-11-19T05:27:01;95368.06;;;3.37;100.00
20119;BME280;10220;42.716;23.306;2023-11-19T05:29:27;95391.59;;;3.40;100.00
20119;BME280;10220;42.716;23.306;2023-11-19T05:31:53;95388.38;;;3.30;100.00
20119;BME280;10220;42.716;23.306;2023-11-19T05:34:20;95376.69;;;3.36;100.00
20119;BME280;10220;42.716;23.306;2023-11-19T05:36:46;95385.50;;;3.41;100.00
20119;BME280;10220;42.716;23.306;2023-11-19T05:39:11;95376.69;;;3.36;100.00
20119;BME280;10220;42.716;23.306;2023-11-19T05:41:37;95388.72;;;3.43;100.00
20119;BME280;10220;42.716;23.306;2023-11-19T05:44:02;95397.03;;;3.45;100.00
20119;BME280;10220;42.716;23.306;2023-11-19T05:46:28;95400.28;;;3.47;100.00
20119;BME280;10220;42.716;23.306;2023-11-19T05:48:53;95394.97;;;3.41;100.00
20119;BME280;10220;42.716;23.306;2023-11-19T05:51:19;95402.63;;;3.41;100.00
20119;BME280;10220;42.716;23.306;2023-11-19T05:53:45;95403.94;;;3.45;100.00
20119;BME280;10220;42.716;23.306;2023-11-19T05:56:11;95414.69;;;3.48;100.00
20119;BME280;10220;42.716;23.306;2023-11-19T05:58:37;95385.81;;;3.30;100.00
20119;BME280;10220;42.716;23.306;2023-11-19T06:01:05;95418.72;;;3.58;100.00
20119;BME280;10220;42.716;23.306;2023-11-19T06:03:32;95410.94;;;3.43;100.00
20119;BME280;10220;42.716;23.306;2023-11-19T06:05:58;95428.09;;;3.50;100.00
20119;BME280;10220;42.716;23.306;2023-11-19T06:08:23;95427.78;;;3.53;100.00
20119;BME280;10220;42.716;23.306;2023-11-19T06:10:49;95430.78;;;3.41;100.00
20119;BME280;10220;42.716;23.306;2023-11-19T06:13:16;95418.91;;;3.32;100.00
20119;BME280;10220;42.716;23.306;2023-11-19T06:15:42;95422.97;;;3.42;100.00
20119;BME280;10220;42.716;23.306;2023-11-19T06:18:08;95430.66;;;3.50;100.00
20119;BME280;10220;42.716;23.306;2023-11-19T06:20:34;95429.50;;;3.37;100.00
20119;BME280;10220;42.716;23.306;2023-11-19T06:23:00;95424.22;;;3.38;100.00
20119;BME280;10220;42.716;23.306;2023-11-19T06:25:26;95408.50;;;3.33;100.00
20119;BME280;10220;42.716;23.306;2023-11-19T06:27:52;95434.63;;;3.37;100.00
20119;BME280;10220;42.716;23.306;2023-11-19T06:30:18;95446.94;;;3.41;100.00
20119;BME280;10220;42.716;23.306;2023-11-19T06:35:56;95382.63;;;3.03;100.00
20119;BME280;10220;42.716;23.306;2023-11-19T06:38:22;95430.97;;;3.14;100.00
20119;BME280;10220;42.716;23.306;2023-11-19T06:40:47;95418.06;;;3.23;100.00
20119;BME280;10220;42.716;23.306;2023-11-19T06:43:12;95427.69;;;3.29;100.00
20119;BME280;10220;42.716;23.306;2023-11-19T06:45:39;95403.72;;;3.05;100.00
20119;BME280;10220;42.716;23.306;2023-11-19T06:48:04;95426.00;;;3.12;100.00
20119;BME280;10220;42.716;23.306;2023-11-19T06:50:31;95434.53;;;3.21;100.00
20119;BME280;10220;42.716;23.306;2023-11-19T06:52:56;95437.78;;;3.31;100.00
20119;BME280;10220;42.716;23.306;2023-11-19T06:55:22;95429.16;;;3.32;100.00
20119;BME280;10220;42.716;23.306;2023-11-19T06:58:01;95433.94;;;3.35;100.00
20119;BME280;10220;42.716;23.306;2023-11-19T07:00:47;95422.47;;;3.05;100.00
20119;BME280;10220;42.716;23.306;2023-11-19T07:03:14;95437.50;;;3.08;100.00
20119;BME280;10220;42.716;23.306;2023-11-19T07:05:41;95432.78;;;3.21;100.00
20119;BME280;10220;42.716;23.306;2023-11-19T07:08:06;95432.22;;;3.10;100.00
20119;BME280;10220;42.716;23.306;2023-11-19T07:10:34;95443.44;;;3.17;100.00
20119;BME280;10220;42.716;23.306;2023-11-19T07:13:00;95431.16;;;3.20;100.00
20119;BME280;10220;42.716;23.306;2023-11-19T07:15:25;95417.75;;;3.18;100.00
20119;BME280;10220;42.716;23.306;2023-11-19T07:17:51;95444.91;;;3.19;100.00
20119;BME280;10220;42.716;23.306;2023-11-19T07:20:16;95437.72;;;3.23;100.00
20119;BME280;10220;42.716;23.306;2023-11-19T07:22:43;95436.25;;;3.12;100.00
20119;BME280;10220;42.716;23.306;2023-11-19T07:25:14;95426.41;;;3.25;100.00
20119;BME280;10220;42.716;23.306;2023-11-19T07:27:39;95429.56;;;3.19;100.00
20119;BME280;10220;42.716;23.306;2023-11-19T07:30:06;95436.91;;;3.14;100.00
20119;BME280;10220;42.716;23.306;2023-11-19T07:32:33;95452.78;;;3.26;100.00
20119;BME280;10220;42.716;23.306;2023-11-19T07:34:59;95456.31;;;3.25;100.00
20119;BME280;10220;42.716;23.306;2023-11-19T07:37:24;95471.31;;;3.20;100.00
20119;BME280;10220;42.716;23.306;2023-11-19T07:39:50;95454.00;;;3.14;100.00
20119;BME280;10220;42.716;23.306;2023-11-19T07:42:15;95457.78;;;3.27;100.00
20119;BME280;10220;42.716;23.306;2023-11-19T07:44:41;95470.22;;;3.22;100.00
20119;BME280;10220;42.716;23.306;2023-11-19T07:47:06;95459.38;;;3.36;100.00
20119;BME280;10220;42.716;23.306;2023-11-19T07:49:32;95465.13;;;3.30;100.00
20119;BME280;10220;42.716;23.306;2023-11-19T07:51:58;95466.53;;;3.25;100.00
20119;BME280;10220;42.716;23.306;2023-11-19T07:54:23;95486.28;;;3.40;100.00
20119;BME280;10220;42.716;23.306;2023-11-19T07:56:49;95474.53;;;3.30;100.00
20119;BME280;10220;42.716;23.306;2023-11-19T07:59:15;95482.28;;;3.38;100.00
20119;BME280;10220;42.716;23.306;2023-11-19T08:01:41;95475.47;;;3.54;100.00
20119;BME280;10220;42.716;23.306;2023-11-19T08:04:06;95472.34;;;3.68;100.00
20119;BME280;10220;42.716;23.306;2023-11-19T08:06:32;95503.47;;;3.81;100.00
20119;BME280;10220;42.716;23.306;2023-11-19T08:08:57;95500.06;;;3.72;100.00
20119;BME280;10220;42.716;23.306;2023-11-19T08:11:23;95493.09;;;3.57;100.00
20119;BME280;10220;42.716;23.306;2023-11-19T08:13:49;95489.09;;;3.54;100.00
20119;BME280;10220;42.716;23.306;2023-11-19T08:16:15;95500.22;;;3.71;100.00
20119;BME280;10220;42.716;23.306;2023-11-19T08:18:43;95496.25;;;3.43;100.00
20119;BME280;10220;42.716;23.306;2023-11-19T08:21:09;95474.34;;;3.48;100.00
20119;BME280;10220;42.716;23.306;2023-11-19T08:23:35;95488.91;;;3.48;100.00
20119;BME280;10220;42.716;23.306;2023-11-19T08:26:01;95493.97;;;3.40;100.00
20119;BME280;10220;42.716;23.306;2023-11-19T08:28:26;95499.69;;;3.34;100.00
20119;BME280;10220;42.716;23.306;2023-11-19T08:30:52;95508.88;;;3.45;100.00
20119;BME280;10220;42.716;23.306;2023-11-19T08:33:18;95492.69;;;3.44;100.00
20119;BME280;10220;42.716;23.306;2023-11-19T08:35:43;95517.09;;;3.56;100.00
20119;BME280;10220;42.716;23.306;2023-11-19T08:38:10;95507.97;;;3.53;100.00
20119;BME280;10220;42.716;23.306;2023-11-19T08:40:35;95501.91;;;3.54;100.00
20119;BME280;10220;42.716;23.306;2023-11-19T08:43:01;95517.84;;;3.48;100.00
20119;BME280;10220;42.716;23.306;2023-11-19T08:45:26;95509.72;;;3.53;100.00
20119;BME280;10220;42.716;23.306;2023-11-19T08:47:52;95508.97;;;3.60;100.00
20119;BME280;10220;42.716;23.306;2023-11-19T08:50:17;95481.72;;;3.51;100.00
20119;BME280;10220;42.716;23.306;2023-11-19T08:52:43;95496.09;;;3.45;100.00
20119;BME280;10220;42.716;23.306;2023-11-19T08:55:08;95509.06;;;3.51;100.00
20119;BME280;10220;42.716;23.306;2023-11-19T08:57:35;95524.00;;;3.63;100.00
20119;BME280;10220;42.716;23.306;2023-11-19T09:00:00;95503.09;;;3.68;100.00
20119;BME280;10220;42.716;23.306;2023-11-19T09:02:26;95501.00;;;3.71;100.00
20119;BME280;10220;42.716;23.306;2023-11-19T09:04:51;95486.63;;;3.70;100.00
20119;BME280;10220;42.716;23.306;2023-11-19T09:07:17;95490.66;;;3.81;100.00
20119;BME280;10220;42.716;23.306;2023-11-19T09:09:43;95493.50;;;3.78;100.00
20119;BME280;10220;42.716;23.306;2023-11-19T09:12:08;95488.72;;;3.83;100.00
20119;BME280;10220;42.716;23.306;2023-11-19T09:14:33;95489.91;;;3.96;100.00
20119;BME280;10220;42.716;23.306;2023-11-19T09:16:59;95485.47;;;4.14;100.00
20119;BME280;10220;42.716;23.306;2023-11-19T09:19:32;95512.88;;;4.13;100.00
20119;BME280;10220;42.716;23.306;2023-11-19T09:21:58;95481.53;;;3.78;100.00
20119;BME280;10220;42.716;23.306;2023-11-19T09:24:23;95502.84;;;3.87;100.00
20119;BME280;10220;42.716;23.306;2023-11-19T09:26:49;95523.13;;;3.80;100.00
20119;BME280;10220;42.716;23.306;2023-11-19T09:29:14;95516.31;;;3.89;100.00
20119;BME280;10220;42.716;23.306;2023-11-19T09:31:40;95515.59;;;4.12;100.00
20119;BME280;10220;42.716;23.306;2023-11-19T09:34:05;95500.81;;;3.98;100.00
20119;BME280;10220;42.716;23.306;2023-11-19T09:36:31;95483.19;;;3.95;100.00
20119;BME280;10220;42.716;23.306;2023-11-19T09:38:56;95482.84;;;3.90;100.00
20119;BME280;10220;42.716;23.306;2023-11-19T09:41:23;95489.63;;;4.07;100.00
20119;BME280;10220;42.716;23.306;2023-11-19T09:43:49;95492.97;;;4.07;100.00
20119;BME280;10220;42.716;23.306;2023-11-19T09:46:16;95486.22;;;3.99;100.00
20119;BME280;10220;42.716;23.306;2023-11-19T09:48:42;95444.84;;;3.78;100.00
20119;BME280;10220;42.716;23.306;2023-11-19T09:51:09;95453.88;;;3.90;100.00
20119;BME280;10220;42.716;23.306;2023-11-19T09:53:35;95438.31;;;3.83;100.00
20119;BME280;10220;42.716;23.306;2023-11-19T09:56:05;95448.59;;;3.91;100.00
20119;BME280;10220;42.716;23.306;2023-11-19T09:58:32;95465.09;;;3.97;100.00
20119;BME280;10220;42.716;23.306;2023-11-19T10:01:01;95442.06;;;4.05;100.00
20119;BME280;10220;42.716;23.306;2023-11-19T10:03:32;95446.88;;;4.15;100.00
20119;BME280;10220;42.716;23.306;2023-11-19T10:05:59;95448.97;;;4.12;100.00
20119;BME280;10220;42.716;23.306;2023-11-19T10:08:26;95446.41;;;4.20;100.00
20119;BME280;10220;42.716;23.306;2023-11-19T10:10:51;95444.19;;;4.25;100.00
20119;BME280;10220;42.716;23.306;2023-11-19T10:13:17;95427.03;;;4.49;100.00
20119;BME280;10220;42.716;23.306;2023-11-19T10:15:43;95435.22;;;4.45;100.00
20119;BME280;10220;42.716;23.306;2023-11-19T10:18:09;95452.22;;;4.30;100.00
20119;BME280;10220;42.716;23.306;2023-11-19T10:20:41;95458.63;;;4.65;100.00
20119;BME280;10220;42.716;23.306;2023-11-19T10:23:06;95461.66;;;4.45;100.00
20119;BME280;10220;42.716;23.306;2023-11-19T10:25:33;95451.06;;;4.24;100.00
20119;BME280;10220;42.716;23.306;2023-11-19T10:27:59;95451.72;;;4.26;100.00
20119;BME280;10220;42.716;23.306;2023-11-19T10:30:26;95448.31;;;4.18;100.00
20119;BME280;10220;42.716;23.306;2023-11-19T10:33:13;95432.00;;;4.27;100.00
20119;BME280;10220;42.716;23.306;2023-11-19T10:35:55;95430.69;;;4.07;100.00
20119;BME280;10220;42.716;23.306;2023-11-19T10:38:25;95427.19;;;4.24;100.00
20119;BME280;10220;42.716;23.306;2023-11-19T10:40:52;95423.34;;;4.12;100.00
20119;BME280;10220;42.716;23.306;2023-11-19T10:43:19;95433.59;;;4.28;100.00
20119;BME280;10220;42.716;23.306;2023-11-19T10:45:44;95437.63;;;4.38;100.00
20119;BME280;10220;42.716;23.306;2023-11-19T10:48:11;95429.44;;;4.27;100.00
20119;BME280;10220;42.716;23.306;2023-11-19T10:50:39;95451.25;;;4.47;100.00
20119;BME280;10220;42.716;23.306;2023-11-19T10:53:05;95439.56;;;4.44;100.00
20119;BME280;10220;42.716;23.306;2023-11-19T10:55:33;95431.88;;;4.52;100.00
20119;BME280;10220;42.716;23.306;2023-11-19T10:58:04;95440.03;;;4.48;100.00
20119;BME280;10220;42.716;23.306;2023-11-19T11:00:39;95429.31;;;4.52;100.00
20119;BME280;10220;42.716;23.306;2023-11-19T11:03:21;95429.78;;;4.48;100.00
20119;BME280;10220;42.716;23.306;2023-11-19T11:05:49;95406.22;;;4.60;100.00
20119;BME280;10220;42.716;23.306;2023-11-19T11:08:15;95398.69;;;4.66;100.00
20119;BME280;10220;42.716;23.306;2023-11-19T11:10:46;95401.41;;;4.81;100.00
20119;BME280;10220;42.716;23.306;2023-11-19T11:13:13;95403.03;;;4.74;100.00
20119;BME280;10220;42.716;23.306;2023-11-19T11:15:39;95386.97;;;4.72;100.00
20119;BME280;10220;42.716;23.306;2023-11-19T11:18:08;95394.16;;;4.92;100.00
20119;BME280;10220;42.716;23.306;2023-11-19T11:20:34;95377.34;;;4.82;100.00
20119;BME280;10220;42.716;23.306;2023-11-19T11:28:20;95405.41;;;4.83;100.00
20119;BME280;10220;42.716;23.306;2023-11-19T11:33:46;95392.00;;;5.27;100.00
20119;BME280;10220;42.716;23.306;2023-11-19T11:36:22;95390.22;;;5.28;100.00
20119;BME280;10220;42.716;23.306;2023-11-19T11:38:49;95383.84;;;5.54;100.00
20119;BME280;10220;42.716;23.306;2023-11-19T11:43:51;95369.69;;;5.96;100.00
20119;BME280;10220;42.716;23.306;2023-11-19T11:49:06;95363.66;;;6.12;100.00
20119;BME280;10220;42.716;23.306;2023-11-19T11:57:05;95373.19;;;6.26;100.00
20119;BME280;10220;42.716;23.306;2023-11-19T11:59:51;95340.41;;;5.83;99.15
20119;BME280;10220;42.716;23.306;2023-11-19T12:02:19;95361.03;;;5.97;98.83
20119;BME280;10220;42.716;23.306;2023-11-19T12:04:48;95367.50;;;6.16;99.97
20119;BME280;10220;42.716;23.306;2023-11-19T12:07:27;95336.09;;;6.20;98.45
20119;BME280;10220;42.716;23.306;2023-11-19T12:10:09;95346.91;;;6.16;98.25
20119;BME280;10220;42.716;23.306;2023-11-19T12:12:37;95342.84;;;6.21;96.95
20119;BME280;10220;42.716;23.306;2023-11-19T12:15:07;95347.03;;;6.22;97.65
20119;BME280;10220;42.716;23.306;2023-11-19T12:17:48;95348.56;;;6.31;98.77
20119;BME280;10220;42.716;23.306;2023-11-19T12:20:23;95333.94;;;6.32;100.00
20119;BME280;10220;42.716;23.306;2023-11-19T12:22:49;95337.28;;;6.32;100.00
20119;BME280;10220;42.716;23.306;2023-11-19T12:25:16;95324.13;;;6.49;98.81
20119;BME280;10220;42.716;23.306;2023-11-19T12:27:44;95307.53;;;6.38;99.48
20119;BME280;10220;42.716;23.306;2023-11-19T12:30:10;95319.41;;;6.39;98.32
20119;BME280;10220;42.716;23.306;2023-11-19T12:32:42;95328.75;;;6.17;99.02
20119;BME280;10220;42.716;23.306;2023-11-19T12:35:09;95301.25;;;6.18;98.56
20119;BME280;10220;42.716;23.306;2023-11-19T12:37:48;95324.53;;;6.39;98.25
20119;BME280;10220;42.716;23.306;2023-11-19T12:42:41;95295.53;;;6.30;97.60
20119;BME280;10220;42.716;23.306;2023-11-19T12:45:07;95312.22;;;6.34;98.84
20119;BME280;10220;42.716;23.306;2023-11-19T12:47:34;95287.34;;;6.27;98.21
20119;BME280;10220;42.716;23.306;2023-11-19T12:49:59;95291.84;;;6.47;98.44
20119;BME280;10220;42.716;23.306;2023-11-19T12:52:25;95297.50;;;6.42;97.33
20119;BME280;10220;42.716;23.306;2023-11-19T12:54:50;95298.00;;;6.24;98.61
20119;BME280;10220;42.716;23.306;2023-11-19T12:57:16;95310.56;;;6.19;100.00
20119;BME280;10220;42.716;23.306;2023-11-19T12:59:54;95291.31;;;6.15;100.00
20119;BME280;10220;42.716;23.306;2023-11-19T13:02:21;95302.56;;;6.14;100.00
20119;BME280;10220;42.716;23.306;2023-11-19T13:04:47;95289.88;;;6.12;100.00
20119;BME280;10220;42.716;23.306;2023-11-19T13:07:12;95285.44;;;6.29;100.00
20119;BME280;10220;42.716;23.306;2023-11-19T13:09:38;95286.19;;;6.15;100.00
20119;BME280;10220;42.716;23.306;2023-11-19T13:12:13;95269.59;;;6.17;100.00
20119;BME280;10220;42.716;23.306;2023-11-19T13:14:39;95285.88;;;6.46;100.00